Time;durP1;ratioP1;P1;durP2;ratioP2;P2;SDS_P1;SDS_P2;PMS_P1;PMS_P2;Temp;Humidity;BMP_temperature;BMP_pressure;BME280_temperature;BME280_humidity;BME280_pressure;Samples;Min_cycle;Max_cycle;Signal;HPM_P1;HPM_P2
2021/12/05 00:18:23;;;;;;;44.17;20.05;;;;;;;;;;4917385;29;20043;-64
2021/12/05 00:23:21;;;;;;;43.83;20.23;;;;;;;;;;4917305;29;20028;-65
2021/12/05 00:25:50;;;;;;;;;;;;;;;;;;4917114;29;20040;-66
2021/12/05 00:52:01;;;;;;;38.92;15.95;;;;;;;;;;5001842;28;20112;-65
2021/12/05 01:15:30;;;;;;;35.03;18.15;;;;;;;;;;4915372;29;20032;-67
2021/12/05 01:18:06;;;;;;;40.90;20.30;;;;;;;;;;4916275;29;20032;-64
2021/12/05 01:20:37;;;;;;;46.22;19.38;;;;;;;;;;4916214;29;20028;-64
2021/12/05 01:23:09;;;;;;;48.03;22.38;;;;;;;;;;4922057;29;20119;-65
2021/12/05 01:31:00;;;;;;;32.55;16.98;;;;;;;;;;4915971;29;20020;-65
2021/12/05 01:33:38;;;;;;;29.75;13.98;;;;;;;;;;4912195;29;20068;-65
2021/12/05 01:38:59;;;;;;;35.95;16.90;;;;;;;;;;4994518;28;20023;-65
2021/12/05 02:08:28;;;;;;;38.78;19.67;;;;;;;;;;4994286;28;20045;-65
2021/12/05 02:10:56;;;;;;;39.78;16.17;;;;;;;;;;4993790;28;20533;-65
2021/12/05 02:32:58;;;;;;;38.92;19.80;;;;;;;;;;4953191;29;20037;-64
2021/12/05 02:43:10;;;;;;;36.97;17.17;;;;;;;;;;4953061;29;20139;-65
2021/12/05 02:45:39;;;;;;;37.28;17.17;;;;;;;;;;4952867;29;20031;-62
2021/12/05 02:48:06;;;;;;;40.83;17.92;;;;;;;;;;4934170;29;20151;-67
2021/12/05 02:50:33;;;;;;;38.33;16.75;;;;;;;;;;4941357;29;20498;-65
2021/12/05 02:53:09;;;;;;;42.15;19.67;;;;;;;;;;4946800;29;20063;-64
2021/12/05 02:55:40;;;;;;;35.25;17.30;;;;;;;;;;4933792;29;20075;-63
2021/12/05 02:58:57;;;;;;;31.83;16.83;;;;;;;;;;4940974;29;20019;-65
2021/12/05 03:01:21;;;;;;;35.85;16.90;;;;;;;;;;4978840;28;20108;-62
2021/12/05 03:03:43;;;;;;;30.27;16.40;;;;;;;;;;5012298;28;20116;-64
2021/12/05 03:06:17;;;;;;;39.28;18.60;;;;;;;;;;5013145;28;20057;-63
2021/12/05 03:08:45;;;;;;;31.63;13.90;;;;;;;;;;5012960;28;20165;-64
2021/12/05 03:11:11;;;;;;;33.70;16.83;;;;;;;;;;5011906;28;20377;-60
2021/12/05 03:13:40;;;;;;;40.03;20.10;;;;;;;;;;5012749;28;20030;-65
2021/12/05 03:16:07;;;;;;;35.55;18.65;;;;;;;;;;5012675;28;20389;-63
2021/12/05 03:18:32;;;;;;;40.03;19.17;;;;;;;;;;5009584;28;20042;-60
2021/12/05 03:20:58;;;;;;;39.90;18.10;;;;;;;;;;5006635;28;20018;-63
2021/12/05 03:23:25;;;;;;;42.88;19.63;;;;;;;;;;4994691;28;20440;-63
2021/12/05 03:25:52;;;;;;;37.20;17.65;;;;;;;;;;5018503;28;20384;-64
2021/12/05 03:28:17;;;;;;;38.50;17.42;;;;;;;;;;5009929;28;20026;-64
2021/12/05 03:30:43;;;;;;;29.40;13.65;;;;;;;;;;5009480;28;20100;-65
2021/12/05 03:33:09;;;;;;;35.90;17.58;;;;;;;;;;5007674;28;20033;-65
2021/12/05 03:35:35;;;;;;;27.80;14.48;;;;;;;;;;5009347;28;20484;-65
2021/12/05 03:38:01;;;;;;;37.85;18.48;;;;;;;;;;5006699;28;20038;-66
2021/12/05 03:40:29;;;;;;;38.95;18.70;;;;;;;;;;5013210;28;20030;-60
2021/12/05 03:42:58;;;;;;;39.80;17.65;;;;;;;;;;5014397;28;20029;-64
2021/12/05 03:45:28;;;;;;;48.47;19.05;;;;;;;;;;5014794;28;20030;-65
2021/12/05 03:47:56;;;;;;;41.53;18.70;;;;;;;;;;5012138;28;20117;-66
2021/12/05 03:50:22;;;;;;;41.60;18.65;;;;;;;;;;5014223;28;20037;-65
2021/12/05 03:52:49;;;;;;;42.80;19.60;;;;;;;;;;5010954;28;20028;-64
2021/12/05 03:55:14;;;;;;;43.80;18.67;;;;;;;;;;4985374;28;20026;-63
2021/12/05 03:57:40;;;;;;;37.03;18.33;;;;;;;;;;5001941;28;20323;-64
2021/12/05 04:00:10;;;;;;;43.60;19.75;;;;;;;;;;5004273;28;20026;-65
2021/12/05 04:02:36;;;;;;;40.72;18.52;;;;;;;;;;5003256;28;20038;-60
2021/12/05 04:05:03;;;;;;;44.75;20.00;;;;;;;;;;4996364;28;20022;-66
2021/12/05 04:07:28;;;;;;;42.75;19.05;;;;;;;;;;5005509;28;20041;-66
2021/12/05 04:09:54;;;;;;;37.90;17.92;;;;;;;;;;5002975;28;20030;-66
2021/12/05 04:12:21;;;;;;;38.50;18.73;;;;;;;;;;5010237;28;20109;-66
2021/12/05 04:14:53;;;;;;;41.40;18.92;;;;;;;;;;5004121;28;20661;-67
2021/12/05 04:17:21;;;;;;;40.10;18.88;;;;;;;;;;4996596;28;20462;-66
2021/12/05 04:19:47;;;;;;;32.65;16.42;;;;;;;;;;4994576;28;20042;-66
2021/12/05 04:22:13;;;;;;;38.17;17.05;;;;;;;;;;5015232;28;20412;-66
2021/12/05 04:24:39;;;;;;;40.55;19.13;;;;;;;;;;5015704;28;20385;-66
2021/12/05 04:27:05;;;;;;;37.20;17.90;;;;;;;;;;4998054;28;20045;-66
2021/12/05 04:29:33;;;;;;;41.55;17.95;;;;;;;;;;5015583;28;20028;-65
2021/12/05 04:31:59;;;;;;;35.38;17.52;;;;;;;;;;5015331;28;20400;-65
2021/12/05 04:34:24;;;;;;;36.95;18.00;;;;;;;;;;5015349;28;20030;-65
2021/12/05 04:36:56;;;;;;;37.92;19.83;;;;;;;;;;5015374;28;20053;-65
2021/12/05 04:39:23;;;;;;;47.80;20.10;;;;;;;;;;5015355;28;20030;-65
2021/12/05 04:41:49;;;;;;;39.33;17.08;;;;;;;;;;5011044;28;20045;-66
2021/12/05 04:44:15;;;;;;;38.88;18.60;;;;;;;;;;5015385;28;20029;-65
2021/12/05 04:46:41;;;;;;;37.70;17.40;;;;;;;;;;5009041;28;20100;-65
2021/12/05 04:49:07;;;;;;;46.30;21.05;;;;;;;;;;5004087;28;20042;-66
2021/12/05 04:51:39;;;;;;;44.92;21.17;;;;;;;;;;5015139;28;20057;-66
2021/12/05 04:54:07;;;;;;;58.05;26.92;;;;;;;;;;5015144;28;20021;-66
2021/12/05 04:56:33;;;;;;;47.00;22.50;;;;;;;;;;5015189;28;20480;-66
2021/12/05 04:59:00;;;;;;;50.15;24.92;;;;;;;;;;5030230;28;20026;-61
2021/12/05 05:01:27;;;;;;;67.00;27.27;;;;;;;;;;5014855;28;20495;-65
2021/12/05 05:03:53;;;;;;;51.78;24.50;;;;;;;;;;5014975;28;20030;-66
2021/12/05 05:06:20;;;;;;;49.95;23.58;;;;;;;;;;5015059;28;20773;-66
2021/12/05 05:08:53;;;;;;;43.58;21.83;;;;;;;;;;5014299;28;20400;-62
2021/12/05 05:11:25;;;;;;;50.15;21.52;;;;;;;;;;4992885;28;20030;-59
2021/12/05 05:13:51;;;;;;;52.10;21.35;;;;;;;;;;5012018;28;20504;-61
2021/12/05 05:16:20;;;;;;;43.92;19.23;;;;;;;;;;5013698;28;20100;-65
2021/12/05 05:18:50;;;;;;;39.28;18.48;;;;;;;;;;5013636;28;20030;-64
2021/12/05 05:24:14;;;;;;;50.20;20.70;;;;;;;;;;5014342;28;20022;-65
2021/12/05 05:27:01;;;;;;;50.35;17.77;;;;;;;;;;5012376;28;20103;-66
2021/12/05 05:40:30;;;;;;;50.80;19.80;;;;;;;;;;5003768;28;20088;-64
2021/12/05 05:45:53;;;;;;;47.58;18.77;;;;;;;;;;4999462;28;20577;-63
2021/12/05 05:50:57;;;;;;;40.20;19.58;;;;;;;;;;5000658;28;20054;-65
2021/12/05 05:53:23;;;;;;;43.60;18.98;;;;;;;;;;4999666;28;20081;-64
2021/12/05 05:55:49;;;;;;;44.00;18.77;;;;;;;;;;4995993;28;20026;-61
2021/12/05 05:58:17;;;;;;;53.53;23.98;;;;;;;;;;4994304;28;20026;-64
2021/12/05 06:01:03;;;;;;;45.55;19.80;;;;;;;;;;5007519;28;20100;-64
2021/12/05 06:03:30;;;;;;;41.53;19.38;;;;;;;;;;5013919;28;20034;-65
2021/12/05 06:05:55;;;;;;;40.15;18.33;;;;;;;;;;4998551;28;20034;-66
2021/12/05 06:08:24;;;;;;;43.25;19.77;;;;;;;;;;5003504;28;20109;-66
2021/12/05 06:10:51;;;;;;;43.47;18.48;;;;;;;;;;5007579;28;20037;-65
2021/12/05 06:13:18;;;;;;;40.10;17.48;;;;;;;;;;4993989;28;20031;-66
2021/12/05 06:15:45;;;;;;;38.58;17.63;;;;;;;;;;5008415;28;20040;-66
2021/12/05 06:18:11;;;;;;;40.53;18.67;;;;;;;;;;5013349;28;20045;-66
2021/12/05 06:20:36;;;;;;;41.78;19.40;;;;;;;;;;5011793;28;20017;-66
2021/12/05 06:23:02;;;;;;;38.33;16.40;;;;;;;;;;5008987;28;20045;-62
2021/12/05 06:25:31;;;;;;;37.53;17.15;;;;;;;;;;5005662;28;20026;-64
2021/12/05 06:28:01;;;;;;;37.88;17.42;;;;;;;;;;4995604;28;20037;-66
2021/12/05 06:30:49;;;;;;;35.83;17.58;;;;;;;;;;4997764;28;20064;-62
2021/12/05 06:41:47;;;;;;;38.17;16.85;;;;;;;;;;4993594;28;20458;-65
2021/12/05 06:46:54;;;;;;;37.25;16.35;;;;;;;;;;5013517;28;20091;-65
2021/12/05 06:49:19;;;;;;;35.85;16.73;;;;;;;;;;4997265;28;20050;-64
2021/12/05 06:51:45;;;;;;;42.22;16.95;;;;;;;;;;4993663;28;20030;-66
2021/12/05 06:54:10;;;;;;;37.97;17.30;;;;;;;;;;5009363;28;20109;-63
2021/12/05 06:56:36;;;;;;;41.05;18.25;;;;;;;;;;5011275;28;20025;-65
2021/12/05 06:59:02;;;;;;;38.15;16.73;;;;;;;;;;4995181;28;20076;-65
2021/12/05 07:01:28;;;;;;;40.50;18.00;;;;;;;;;;5012782;28;20022;-65
2021/12/05 07:03:55;;;;;;;38.53;18.08;;;;;;;;;;5006107;28;20105;-65
2021/12/05 07:06:29;;;;;;;40.90;17.83;;;;;;;;;;5012583;28;20488;-66
2021/12/05 07:09:00;;;;;;;35.00;16.40;;;;;;;;;;5009971;28;20417;-63
2021/12/05 07:11:34;;;;;;;40.45;17.80;;;;;;;;;;4998555;28;20034;-65
2021/12/05 07:16:56;;;;;;;31.00;15.45;;;;;;;;;;5005707;28;20114;-62
2021/12/05 07:19:36;;;;;;;39.97;18.55;;;;;;;;;;5002405;28;20066;-64
2021/12/05 07:22:14;;;;;;;40.55;17.55;;;;;;;;;;4998698;28;20042;-61
2021/12/05 07:24:45;;;;;;;33.80;15.35;;;;;;;;;;4997919;28;20018;-66
2021/12/05 07:41:08;;;;;;;38.35;17.55;;;;;;;;;;4932913;29;20078;-65
2021/12/05 07:43:33;;;;;;;40.72;17.45;;;;;;;;;;4933081;29;20059;-64
2021/12/05 07:46:05;;;;;;;37.13;17.45;;;;;;;;;;4932913;29;20599;-65
2021/12/05 07:48:34;;;;;;;40.30;18.05;;;;;;;;;;4931708;29;20065;-64
2021/12/05 07:51:12;;;;;;;41.30;17.17;;;;;;;;;;4926079;29;20032;-66
2021/12/05 07:53:53;;;;;;;44.72;21.98;;;;;;;;;;4933077;29;20066;-65
2021/12/05 07:59:15;;;;;;;39.70;18.52;;;;;;;;;;4932920;29;20028;-64
2021/12/05 08:15:26;;;;;;;42.45;18.58;;;;;;;;;;4995243;28;20040;-65
2021/12/05 08:17:53;;;;;;;27.95;13.25;;;;;;;;;;5002718;28;20030;-65
2021/12/05 08:20:27;;;;;;;41.70;18.58;;;;;;;;;;5002470;28;20564;-66
2021/12/05 08:22:53;;;;;;;40.30;18.00;;;;;;;;;;4994382;28;20027;-65
2021/12/05 08:25:22;;;;;;;38.95;17.98;;;;;;;;;;5006940;28;20042;-66
2021/12/05 08:27:52;;;;;;;39.00;18.60;;;;;;;;;;4997584;28;20027;-65
2021/12/05 08:30:37;;;;;;;39.78;16.65;;;;;;;;;;4998054;28;20029;-63
2021/12/05 10:01:47;;;;;;;55.20;24.42;;;;;;;;;;4935006;29;20083;-65
2021/12/05 10:10:01;;;;;;;57.17;25.05;;;;;;;;;;5000607;28;20026;-65
2021/12/05 10:12:59;;;;;;;55.40;26.60;;;;;;;;;;4994398;28;20030;-65
2021/12/05 10:37:26;;;;;;;70.95;28.98;;;;;;;;;;5000272;28;20070;-65
2021/12/05 10:40:18;;;;;;;84.78;35.95;;;;;;;;;;4993647;28;20147;-66
2021/12/05 10:42:46;;;;;;;57.42;27.67;;;;;;;;;;5001200;28;20448;-66
2021/12/05 10:45:34;;;;;;;56.13;25.65;;;;;;;;;;4994166;28;20014;-64
2021/12/05 10:48:07;;;;;;;51.88;23.70;;;;;;;;;;5008092;28;20462;-65
2021/12/05 10:50:46;;;;;;;55.90;25.15;;;;;;;;;;5008293;28;20025;-64
2021/12/05 10:53:18;;;;;;;57.10;27.88;;;;;;;;;;4997229;28;20343;-65
2021/12/05 10:55:43;;;;;;;58.50;26.50;;;;;;;;;;4994075;28;20027;-64
2021/12/05 10:58:09;;;;;;;64.03;27.55;;;;;;;;;;4998533;28;20037;-64
2021/12/05 11:00:35;;;;;;;65.70;29.92;;;;;;;;;;5000981;28;20039;-66
2021/12/05 11:03:18;;;;;;;54.55;25.35;;;;;;;;;;4996990;28;20026;-59
2021/12/05 11:05:45;;;;;;;63.30;28.33;;;;;;;;;;5012111;28;20029;-57
2021/12/05 11:08:29;;;;;;;65.40;28.08;;;;;;;;;;5011702;28;20022;-60
2021/12/05 11:11:16;;;;;;;61.47;28.20;;;;;;;;;;5007229;28;20040;-58
2021/12/05 11:13:44;;;;;;;62.50;28.17;;;;;;;;;;4990660;28;20370;-58
2021/12/05 11:16:34;;;;;;;65.88;29.15;;;;;;;;;;5009802;28;20040;-65
2021/12/05 11:19:01;;;;;;;62.30;26.50;;;;;;;;;;5010767;28;20543;-66
2021/12/05 11:21:34;;;;;;;57.90;26.98;;;;;;;;;;5008311;28;20117;-65
2021/12/05 11:24:10;;;;;;;58.65;28.98;;;;;;;;;;5004189;28;20469;-61
2021/12/05 11:26:38;;;;;;;52.92;24.48;;;;;;;;;;5005748;28;20551;-65
2021/12/05 11:29:04;;;;;;;64.43;28.52;;;;;;;;;;5002903;28;20541;-67
2021/12/05 11:31:32;;;;;;;62.17;28.30;;;;;;;;;;5007931;28;20113;-66
2021/12/05 11:33:58;;;;;;;51.45;23.05;;;;;;;;;;5007827;28;20125;-66
2021/12/05 11:36:30;;;;;;;54.42;27.33;;;;;;;;;;5011626;28;20033;-67
2021/12/05 11:38:56;;;;;;;56.33;28.13;;;;;;;;;;5011715;28;20030;-66
2021/12/05 11:41:23;;;;;;;61.17;28.52;;;;;;;;;;5009757;28;20045;-64
2021/12/05 11:43:53;;;;;;;71.95;29.55;;;;;;;;;;5009960;28;20073;-66
2021/12/05 11:46:31;;;;;;;69.43;29.30;;;;;;;;;;5005222;28;20030;-66
2021/12/05 11:48:56;;;;;;;65.95;27.75;;;;;;;;;;5004868;28;20521;-64
2021/12/05 11:51:34;;;;;;;68.63;27.15;;;;;;;;;;4997283;28;20033;-65
2021/12/05 11:54:10;;;;;;;60.15;27.85;;;;;;;;;;5011627;28;20496;-64
2021/12/05 11:56:35;;;;;;;70.38;28.83;;;;;;;;;;5011660;28;20117;-63
2021/12/05 11:59:25;;;;;;;73.68;29.85;;;;;;;;;;5012760;28;20112;-65
2021/12/05 12:02:08;;;;;;;66.60;27.40;;;;;;;;;;5011276;28;20033;-65
2021/12/05 12:04:54;;;;;;;66.57;27.95;;;;;;;;;;5014159;28;20041;-64
2021/12/05 12:07:25;;;;;;;79.95;30.27;;;;;;;;;;5010965;28;20026;-66
2021/12/05 12:10:23;;;;;;;73.20;28.85;;;;;;;;;;5014829;28;20034;-67
2021/12/05 12:13:06;;;;;;;60.42;28.42;;;;;;;;;;5007203;28;20093;-65
2021/12/05 12:15:32;;;;;;;63.58;26.63;;;;;;;;;;5009946;28;20477;-66
2021/12/05 12:18:15;;;;;;;65.10;29.77;;;;;;;;;;5014967;28;20030;-63
2021/12/05 12:20:46;;;;;;;67.43;28.42;;;;;;;;;;5015048;28;20380;-67
2021/12/05 12:23:12;;;;;;;;;;;;;;;;;;5010888;28;20036;-66
2021/12/05 12:25:40;;;;;;;63.53;27.80;;;;;;;;;;5010967;28;20004;-65
2021/12/05 12:28:07;;;;;;;66.32;27.33;;;;;;;;;;5007977;28;20480;-66
2021/12/05 12:30:36;;;;;;;58.65;25.80;;;;;;;;;;4993411;28;20504;-66
2021/12/05 12:33:09;;;;;;;66.30;28.38;;;;;;;;;;5014143;28;20034;-66
2021/12/05 12:35:36;;;;;;;64.57;27.40;;;;;;;;;;5006326;28;20030;-63
2021/12/05 12:38:07;;;;;;;60.65;26.30;;;;;;;;;;4996284;28;20117;-65
2021/12/05 12:40:34;;;;;;;68.28;28.65;;;;;;;;;;5015147;28;20385;-58
2021/12/05 12:43:00;;;;;;;71.68;31.48;;;;;;;;;;5015067;28;20050;-63
2021/12/05 12:45:26;;;;;;;63.70;26.77;;;;;;;;;;5015133;28;20058;-65
2021/12/05 12:47:58;;;;;;;72.35;28.90;;;;;;;;;;5014879;28;20532;-67
2021/12/05 12:50:34;;;;;;;70.13;31.50;;;;;;;;;;5011785;28;20030;-66
2021/12/05 12:53:08;;;;;;;76.10;33.38;;;;;;;;;;5006677;28;20033;-63
2021/12/05 12:55:36;;;;;;;57.45;25.45;;;;;;;;;;5010372;28;20034;-65
2021/12/05 12:58:05;;;;;;;44.03;19.75;;;;;;;;;;5011628;28;20029;-59
2021/12/05 13:00:33;;;;;;;72.90;29.02;;;;;;;;;;5011700;28;20026;-60
2021/12/05 13:03:02;;;;;;;87.95;31.45;;;;;;;;;;5011412;28;20504;-61
2021/12/05 13:11:06;;;;;;;72.20;28.20;;;;;;;;;;5006910;28;20088;-64
2021/12/05 13:13:33;;;;;;;74.65;32.22;;;;;;;;;;5007260;28;20799;-57
2021/12/05 13:16:10;;;;;;;68.47;28.58;;;;;;;;;;5006460;28;20378;-60
2021/12/05 13:18:38;;;;;;;63.65;29.55;;;;;;;;;;5011578;28;20030;-61
2021/12/05 13:21:25;;;;;;;73.53;29.95;;;;;;;;;;4997018;28;20034;-59
2021/12/05 13:23:52;;;;;;;67.13;29.27;;;;;;;;;;5014362;28;20099;-59
2021/12/05 13:26:35;;;;;;;73.88;30.65;;;;;;;;;;5014481;28;20504;-59
2021/12/05 13:29:14;;;;;;;69.22;29.23;;;;;;;;;;5009937;28;20034;-66
2021/12/05 13:31:44;;;;;;;67.28;28.27;;;;;;;;;;5001869;28;20392;-66
2021/12/05 13:34:39;;;;;;;;;;;;;;;;;;5007023;28;20030;-65
2021/12/05 13:37:08;;;;;;;60.75;27.38;;;;;;;;;;4992665;28;19928;-65
2021/12/05 13:39:33;;;;;;;76.57;34.92;;;;;;;;;;5006586;28;20034;-65
2021/12/05 13:42:16;;;;;;;64.03;29.25;;;;;;;;;;5006685;28;20551;-62
2021/12/05 13:45:00;;;;;;;61.35;26.67;;;;;;;;;;5006548;28;20110;-64
2021/12/05 13:47:53;;;;;;;58.53;25.20;;;;;;;;;;5012622;28;20034;-67
2021/12/05 13:50:19;;;;;;;51.38;23.55;;;;;;;;;;5001283;28;20156;-64
2021/12/05 13:52:59;;;;;;;56.38;26.85;;;;;;;;;;5002864;28;20459;-66
2021/12/05 13:55:42;;;;;;;58.90;26.80;;;;;;;;;;5012379;28;20054;-64
2021/12/05 13:58:35;;;;;;;64.38;29.40;;;;;;;;;;5011902;28;20381;-64
2021/12/05 14:01:14;;;;;;;65.07;27.58;;;;;;;;;;5008697;28;20108;-66
2021/12/05 14:03:48;;;;;;;64.70;27.35;;;;;;;;;;5006924;28;20038;-66
2021/12/05 14:06:42;;;;;;;69.68;29.42;;;;;;;;;;5001897;28;20018;-66
2021/12/05 14:09:26;;;;;;;63.47;27.92;;;;;;;;;;4999506;28;20397;-64
2021/12/05 14:12:20;;;;;;;63.90;28.63;;;;;;;;;;4989862;28;20030;-64
2021/12/05 14:14:50;;;;;;;63.05;29.98;;;;;;;;;;5002820;28;20037;-65
2021/12/05 14:17:20;;;;;;;71.82;30.73;;;;;;;;;;4995592;28;20049;-62
2021/12/05 14:20:13;;;;;;;69.35;33.17;;;;;;;;;;4998850;28;20562;-65
2021/12/05 14:22:40;;;;;;;61.97;29.40;;;;;;;;;;5002891;28;20040;-57
2021/12/05 14:25:19;;;;;;;69.25;30.67;;;;;;;;;;5002000;28;20088;-64
2021/12/05 14:27:52;;;;;;;61.97;29.55;;;;;;;;;;5006918;28;20072;-65
2021/12/05 14:30:20;;;;;;;72.38;29.13;;;;;;;;;;5008275;28;20013;-65
2021/12/05 14:32:47;;;;;;;68.93;28.10;;;;;;;;;;5002452;28;20513;-61
2021/12/05 14:35:21;;;;;;;75.38;30.05;;;;;;;;;;5003364;28;20026;-65
2021/12/05 14:37:48;;;;;;;77.10;30.60;;;;;;;;;;5008045;28;20034;-63
2021/12/05 14:40:30;;;;;;;76.03;31.95;;;;;;;;;;4990534;28;20034;-65
2021/12/05 14:43:08;;;;;;;60.13;28.35;;;;;;;;;;4989736;28;20018;-61
2021/12/05 14:45:37;;;;;;;69.18;33.65;;;;;;;;;;4996024;28;20057;-66
2021/12/05 14:48:07;;;;;;;59.05;26.70;;;;;;;;;;4992624;28;20042;-64
2021/12/05 14:50:36;;;;;;;54.63;27.52;;;;;;;;;;5009178;28;20049;-65
2021/12/05 14:53:05;;;;;;;65.63;31.55;;;;;;;;;;5006860;28;20046;-66
2021/12/05 14:55:33;;;;;;;67.57;31.43;;;;;;;;;;5009068;28;20038;-59
2021/12/05 14:58:09;;;;;;;66.13;28.73;;;;;;;;;;4994174;28;20068;-57
2021/12/05 15:00:47;;;;;;;56.78;26.98;;;;;;;;;;4988796;28;20030;-66
2021/12/05 15:03:17;;;;;;;68.53;30.20;;;;;;;;;;4998126;28;20032;-61
2021/12/05 15:05:50;;;;;;;62.22;28.48;;;;;;;;;;5005467;28;20023;-65
2021/12/05 15:08:19;;;;;;;62.10;27.50;;;;;;;;;;4995866;28;20117;-65
2021/12/05 15:10:47;;;;;;;57.85;25.95;;;;;;;;;;4989337;28;20078;-62
2021/12/05 15:13:17;;;;;;;57.95;27.30;;;;;;;;;;4989207;28;20050;-62
2021/12/05 15:15:42;;;;;;;60.38;27.42;;;;;;;;;;4994474;28;20037;-61
2021/12/05 15:18:17;;;;;;;59.35;26.83;;;;;;;;;;4997297;28;20034;-65
2021/12/05 15:20:46;;;;;;;57.60;25.58;;;;;;;;;;4989252;28;20161;-62
2021/12/05 15:23:11;;;;;;;54.53;24.67;;;;;;;;;;4999680;28;20037;-65
2021/12/05 15:25:40;;;;;;;47.85;23.23;;;;;;;;;;5008615;28;20397;-58
2021/12/05 15:28:07;;;;;;;51.25;23.90;;;;;;;;;;5004061;28;20038;-64
2021/12/05 15:30:41;;;;;;;61.42;27.85;;;;;;;;;;4989174;28;20030;-66
2021/12/05 15:33:22;;;;;;;69.13;30.05;;;;;;;;;;4989190;28;20034;-64
2021/12/05 15:35:50;;;;;;;54.03;26.67;;;;;;;;;;4993885;28;20027;-64
2021/12/05 15:38:25;;;;;;;57.28;27.48;;;;;;;;;;5001762;28;20029;-64
2021/12/05 15:40:57;;;;;;;58.33;24.13;;;;;;;;;;5011076;28;20018;-65
2021/12/05 15:43:26;;;;;;;57.65;28.20;;;;;;;;;;5012688;28;20468;-63
2021/12/05 15:45:54;;;;;;;53.85;25.98;;;;;;;;;;4998610;28;20026;-65
2021/12/05 15:48:23;;;;;;;50.10;24.52;;;;;;;;;;4992955;28;20038;-65
2021/12/05 15:50:51;;;;;;;48.75;23.90;;;;;;;;;;4992913;28;20426;-65
2021/12/05 15:53:18;;;;;;;47.25;24.80;;;;;;;;;;5002520;28;21023;-66
2021/12/05 15:55:51;;;;;;;53.50;25.42;;;;;;;;;;5006454;28;20440;-65
2021/12/05 15:58:23;;;;;;;53.45;26.88;;;;;;;;;;5003956;28;20030;-64
2021/12/05 16:00:58;;;;;;;61.28;27.15;;;;;;;;;;5008721;28;20026;-61
2021/12/05 16:03:37;;;;;;;60.42;29.02;;;;;;;;;;5002248;28;20046;-64
2021/12/05 16:06:04;;;;;;;57.45;26.30;;;;;;;;;;5008926;28;20129;-63
2021/12/05 16:08:31;;;;;;;55.42;24.10;;;;;;;;;;5001109;28;20160;-63
2021/12/05 16:11:00;;;;;;;59.35;26.35;;;;;;;;;;4992767;28;20158;-62
2021/12/05 16:13:40;;;;;;;58.47;26.50;;;;;;;;;;5010868;28;20088;-66
2021/12/05 16:16:28;;;;;;;59.00;24.92;;;;;;;;;;5011199;28;20044;-66
2021/12/05 16:18:59;;;;;;;57.40;27.63;;;;;;;;;;5011447;28;20488;-63
2021/12/05 16:21:30;;;;;;;72.85;30.25;;;;;;;;;;5006995;28;20385;-65
2021/12/05 16:24:03;;;;;;;78.63;32.78;;;;;;;;;;5010202;28;20388;-64
2021/12/05 16:26:29;;;;;;;94.30;34.03;;;;;;;;;;5007445;28;20076;-65
2021/12/05 16:29:11;;;;;;;91.20;34.13;;;;;;;;;;5010498;28;20026;-64
2021/12/05 16:31:42;;;;;;;101.88;36.60;;;;;;;;;;5011556;28;20106;-64
2021/12/05 16:34:11;;;;;;;128.60;48.00;;;;;;;;;;4994713;28;20473;-60
2021/12/05 16:36:47;;;;;;;93.57;39.53;;;;;;;;;;4991136;28;20026;-65
2021/12/05 16:39:19;;;;;;;105.03;41.25;;;;;;;;;;4994106;28;20109;-61
2021/12/05 16:41:49;;;;;;;100.70;40.10;;;;;;;;;;4999076;28;20684;-63
2021/12/05 16:44:19;;;;;;;98.05;37.67;;;;;;;;;;4990500;28;20046;-64
2021/12/05 16:46:45;;;;;;;;;;;;;;;;;;5004940;28;20064;-65
2021/12/05 16:49:13;;;;;;;110.85;36.75;;;;;;;;;;4991071;28;19953;-59
2021/12/05 16:52:07;;;;;;;119.80;34.83;;;;;;;;;;4991365;28;20474;-64
2021/12/05 16:54:44;;;;;;;119.03;35.47;;;;;;;;;;4987928;28;20125;-65
2021/12/05 16:57:17;;;;;;;125.53;40.80;;;;;;;;;;4996725;28;20532;-66
2021/12/05 16:59:55;;;;;;;108.18;34.40;;;;;;;;;;4994900;28;20026;-63
2021/12/05 17:02:28;;;;;;;109.80;34.83;;;;;;;;;;4999051;28;20033;-61
2021/12/05 17:05:02;;;;;;;94.03;34.00;;;;;;;;;;5010687;28;20092;-61
2021/12/05 17:07:54;;;;;;;86.07;32.78;;;;;;;;;;5009986;28;20026;-64
2021/12/05 17:10:20;;;;;;;85.32;30.70;;;;;;;;;;5005335;28;20109;-61
2021/12/05 17:12:47;;;;;;;83.43;31.80;;;;;;;;;;5008263;28;20457;-62
2021/12/05 17:15:25;;;;;;;71.18;29.83;;;;;;;;;;5009418;28;20065;-64
2021/12/05 17:17:53;;;;;;;64.65;28.05;;;;;;;;;;5001056;28;20030;-59
2021/12/05 17:20:22;;;;;;;72.50;32.10;;;;;;;;;;4996256;28;20034;-60
2021/12/05 17:22:56;;;;;;;59.08;28.33;;;;;;;;;;4995230;28;20034;-59
2021/12/05 17:25:35;;;;;;;61.00;27.35;;;;;;;;;;5001340;28;20390;-64
2021/12/05 17:28:03;;;;;;;57.50;28.10;;;;;;;;;;4998755;28;20120;-60
2021/12/05 17:30:29;;;;;;;52.47;26.70;;;;;;;;;;4991992;28;20034;-59
2021/12/05 17:32:56;;;;;;;56.40;28.02;;;;;;;;;;5002193;28;20053;-58
2021/12/05 17:35:25;;;;;;;64.93;30.60;;;;;;;;;;4990761;28;20034;-62
2021/12/05 17:37:51;;;;;;;64.55;29.20;;;;;;;;;;4991683;28;20114;-65
2021/12/05 17:40:16;;;;;;;56.67;27.10;;;;;;;;;;5003644;28;20033;-61
2021/12/05 17:42:43;;;;;;;63.35;30.33;;;;;;;;;;4990766;28;20093;-63
2021/12/05 17:45:10;;;;;;;69.45;30.63;;;;;;;;;;4990802;28;20033;-65
2021/12/05 17:47:36;;;;;;;63.00;31.17;;;;;;;;;;4990593;28;20026;-66
2021/12/05 17:50:06;;;;;;;57.80;27.83;;;;;;;;;;4990047;28;20223;-65
2021/12/05 17:52:32;;;;;;;114.78;49.90;;;;;;;;;;4992610;28;20080;-64
2021/12/05 17:55:06;;;;;;;73.72;34.03;;;;;;;;;;5002199;28;20042;-64
2021/12/05 17:57:39;;;;;;;62.28;29.33;;;;;;;;;;4999609;28;20069;-65
2021/12/05 18:00:20;;;;;;;60.65;27.15;;;;;;;;;;5003596;28;20519;-64
2021/12/05 18:02:55;;;;;;;58.35;28.13;;;;;;;;;;5004500;28;20049;-65
2021/12/05 18:05:36;;;;;;;58.05;27.58;;;;;;;;;;5002064;28;20121;-60
2021/12/05 18:08:07;;;;;;;59.45;27.33;;;;;;;;;;4994982;28;20041;-59
2021/12/05 18:10:38;;;;;;;53.17;27.20;;;;;;;;;;5008981;28;20045;-63
2021/12/05 18:13:10;;;;;;;61.00;27.67;;;;;;;;;;5009221;28;20187;-66
2021/12/05 18:15:36;;;;;;;55.80;26.48;;;;;;;;;;5005346;28;20535;-56
2021/12/05 18:18:05;;;;;;;65.30;29.17;;;;;;;;;;4977646;28;20117;-63
2021/12/05 18:20:33;;;;;;;61.05;29.95;;;;;;;;;;4990570;28;20062;-60
2021/12/05 18:23:01;;;;;;;58.13;28.35;;;;;;;;;;4990049;28;20022;-63
2021/12/05 18:25:28;;;;;;;66.95;29.58;;;;;;;;;;5009689;28;20022;-59
2021/12/05 18:27:55;;;;;;;57.92;28.77;;;;;;;;;;4990316;28;20414;-57
2021/12/05 18:30:22;;;;;;;61.75;29.45;;;;;;;;;;4993399;28;20026;-64
2021/12/05 18:32:49;;;;;;;59.60;27.83;;;;;;;;;;4992650;28;20037;-62
2021/12/05 18:35:16;;;;;;;61.67;28.80;;;;;;;;;;4992293;28;20027;-65
2021/12/05 18:37:43;;;;;;;58.03;26.98;;;;;;;;;;5005587;28;20109;-64
2021/12/05 18:40:10;;;;;;;56.85;26.50;;;;;;;;;;5000993;28;20030;-65
2021/12/05 18:42:36;;;;;;;51.80;26.17;;;;;;;;;;4999360;28;20109;-65
2021/12/05 18:45:05;;;;;;;54.92;27.13;;;;;;;;;;5007136;28;20026;-64
2021/12/05 18:47:31;;;;;;;59.08;27.00;;;;;;;;;;4993361;28;20677;-65
2021/12/05 18:49:58;;;;;;;56.60;27.92;;;;;;;;;;5009958;28;20050;-63
2021/12/05 18:52:25;;;;;;;58.67;27.42;;;;;;;;;;5001883;28;20037;-65
2021/12/05 18:54:52;;;;;;;61.67;27.73;;;;;;;;;;4992214;28;20084;-63
2021/12/05 18:57:22;;;;;;;58.53;27.92;;;;;;;;;;4993104;28;20109;-59
2021/12/05 18:59:59;;;;;;;62.95;28.02;;;;;;;;;;4993432;28;20158;-64
2021/12/05 19:05:15;;;;;;;58.85;28.77;;;;;;;;;;4993132;28;20069;-63
2021/12/05 19:08:17;;;;;;;60.92;27.77;;;;;;;;;;5006254;28;20117;-61
2021/12/05 19:13:12;;;;;;;56.92;25.63;;;;;;;;;;5000967;28;20056;-56
2021/12/05 19:15:38;;;;;;;58.35;26.25;;;;;;;;;;5012563;28;20037;-64
2021/12/05 19:18:03;;;;;;;53.00;24.88;;;;;;;;;;4997915;28;20022;-57
2021/12/05 19:20:29;;;;;;;50.20;23.75;;;;;;;;;;4995462;28;20030;-62
2021/12/05 19:22:57;;;;;;;56.28;25.60;;;;;;;;;;5001219;28;20033;-62
2021/12/05 19:25:28;;;;;;;55.40;25.90;;;;;;;;;;5006009;28;20045;-58
2021/12/05 19:27:55;;;;;;;46.65;22.27;;;;;;;;;;4992970;28;20426;-59
2021/12/05 19:30:28;;;;;;;50.03;24.05;;;;;;;;;;4996237;28;20030;-63
2021/12/05 19:32:55;;;;;;;47.15;23.40;;;;;;;;;;5012605;28;20022;-61
2021/12/05 19:35:21;;;;;;;48.65;23.38;;;;;;;;;;5001217;28;20042;-64
2021/12/05 19:37:46;;;;;;;51.72;24.05;;;;;;;;;;5006190;28;20096;-65
2021/12/05 19:40:17;;;;;;;44.90;22.27;;;;;;;;;;4995668;28;20018;-64
2021/12/05 19:42:44;;;;;;;46.85;23.23;;;;;;;;;;4995011;28;20113;-64
2021/12/05 19:45:11;;;;;;;46.85;23.13;;;;;;;;;;4996909;28;20021;-65
2021/12/05 19:47:37;;;;;;;45.47;23.13;;;;;;;;;;5002544;28;20089;-64
2021/12/05 19:50:05;;;;;;;49.25;23.98;;;;;;;;;;4988897;28;20451;-64
2021/12/05 19:52:31;;;;;;;49.20;23.27;;;;;;;;;;5001699;28;20042;-64
2021/12/05 19:54:57;;;;;;;49.90;23.50;;;;;;;;;;4996491;28;20097;-64
2021/12/05 19:57:23;;;;;;;48.65;22.42;;;;;;;;;;5004065;28;20033;-61
2021/12/05 19:59:48;;;;;;;49.35;22.85;;;;;;;;;;5001439;28;20113;-64